Time;durP1;ratioP1;P1;durP2;ratioP2;P2;SDS_P1;SDS_P2;PMS_P1;PMS_P2;Temp;Humidity;BMP_temperature;BMP_pressure;BME280_temperature;BME280_humidity;BME280_pressure;Samples;Min_cycle;Max_cycle;Signal;HPM_P1;HPM_P2
2023/06/22 00:00:52;;;;;;;10.10;6.25;;;25.90;85.20;;;;;;5005530;28;20034;-61
2023/06/22 00:03:19;;;;;;;8.05;5.22;;;26.20;85.40;;;;;;5005723;28;20052;-71
2023/06/22 00:05:45;;;;;;;9.00;5.57;;;26.20;85.60;;;;;;5014230;28;20048;-68
2023/06/22 00:08:11;;;;;;;9.18;6.05;;;26.00;85.40;;;;;;5016587;28;20138;-61
2023/06/22 00:10:37;;;;;;;9.40;5.60;;;26.10;85.20;;;;;;5015383;28;20121;-60
2023/06/22 00:13:02;;;;;;;9.68;5.65;;;26.00;85.10;;;;;;5011863;28;20073;-61
2023/06/22 00:15:28;;;;;;;9.60;5.55;;;26.10;85.20;;;;;;5015110;28;20065;-60
2023/06/22 00:17:54;;;;;;;7.57;5.30;;;25.90;85.10;;;;;;5016447;28;20399;-61
2023/06/22 00:20:20;;;;;;;7.72;5.35;;;26.00;85.00;;;;;;5014809;28;20049;-62
2023/06/22 00:22:47;;;;;;;9.40;5.18;;;25.80;84.70;;;;;;5015934;28;20046;-61
2023/06/22 00:25:13;;;;;;;8.20;5.70;;;26.10;85.20;;;;;;5014140;28;20424;-61
2023/06/22 00:27:39;;;;;;;8.27;5.15;;;26.20;85.10;;;;;;4996706;28;20049;-60
2023/06/22 00:30:05;;;;;;;8.85;5.85;;;25.90;84.90;;;;;;5007348;28;20502;-61
2023/06/22 00:32:31;;;;;;;11.38;6.07;;;25.90;84.50;;;;;;5014454;28;20136;-62
2023/06/22 00:34:56;;;;;;;8.50;6.38;;;26.10;85.00;;;;;;5013376;28;20172;-68
2023/06/22 00:37:25;;;;;;;10.13;6.75;;;26.10;85.00;;;;;;5013562;28;20050;-68
2023/06/22 00:39:51;;;;;;;10.65;7.15;;;25.80;84.90;;;;;;5015159;28;20057;-65
2023/06/22 00:42:17;;;;;;;10.02;7.03;;;26.10;85.00;;;;;;5015755;28;20495;-61
2023/06/22 00:44:44;;;;;;;11.32;6.38;;;26.00;84.90;;;;;;5014460;28;20411;-60
2023/06/22 00:47:13;;;;;;;9.00;6.25;;;25.80;84.80;;;;;;5011817;28;20057;-62
2023/06/22 00:49:39;;;;;;;10.30;7.32;;;26.10;85.10;;;;;;5013490;28;20060;-62
2023/06/22 00:52:08;;;;;;;10.90;7.30;;;26.00;84.80;;;;;;5014211;28;20443;-61
2023/06/22 00:54:35;;;;;;;9.15;6.55;;;25.80;84.60;;;;;;4998703;28;20079;-68
2023/06/22 00:57:01;;;;;;;9.40;6.35;;;26.00;85.00;;;;;;5012983;28;20049;-61
2023/06/22 00:59:27;;;;;;;10.50;6.50;;;26.10;84.70;;;;;;5015403;28;20069;-62
2023/06/22 01:01:53;;;;;;;10.30;7.28;;;25.80;84.50;;;;;;5015621;28;20096;-61
2023/06/22 01:04:18;;;;;;;10.85;7.80;;;26.00;84.70;;;;;;5015143;28;20046;-65
2023/06/22 01:07:13;;;;;;;10.75;7.78;;;25.70;84.40;;;;;;5014442;28;20038;-64
2023/06/22 01:10:08;;;;;;;8.85;6.15;;;25.80;83.60;;;;;;5009479;28;20058;-60
2023/06/22 01:12:43;;;;;;;10.55;6.90;;;26.00;83.70;;;;;;5003486;28;20100;-61
2023/06/22 01:15:16;;;;;;;9.45;6.28;;;25.80;84.70;;;;;;5003044;28;20100;-62
2023/06/22 01:17:42;;;;;;;7.88;5.65;;;26.00;85.00;;;;;;4996273;28;20061;-61
2023/06/22 01:20:08;;;;;;;7.50;5.15;;;25.90;84.80;;;;;;5014412;28;20180;-64
2023/06/22 01:23:05;;;;;;;7.90;5.15;;;26.10;84.50;;;;;;5015189;28;20053;-60
2023/06/22 01:25:42;;;;;;;7.53;5.00;;;25.80;84.90;;;;;;5002311;28;20060;-62
2023/06/22 01:28:43;;;;;;;8.80;5.65;;;25.70;83.20;;;;;;5001587;28;20046;-65
2023/06/22 01:31:10;;;;;;;9.18;4.95;;;25.90;83.60;;;;;;5011879;28;20046;-61
2023/06/22 01:33:37;;;;;;;7.47;4.78;;;26.10;84.80;;;;;;4994233;28;20117;-61
2023/06/22 01:36:03;;;;;;;7.85;4.38;;;25.80;84.40;;;;;;5005271;28;20439;-69
2023/06/22 01:38:29;;;;;;;6.20;3.92;;;25.80;83.90;;;;;;4997208;28;20042;-62
2023/06/22 01:40:56;;;;;;;6.53;3.63;;;25.90;84.10;;;;;;5013297;28;20042;-60
2023/06/22 01:43:25;;;;;;;7.15;3.83;;;25.80;87.50;;;;;;4996465;28;20049;-62
2023/06/22 01:45:51;;;;;;;6.38;3.42;;;25.70;83.10;;;;;;5006616;28;20046;-62
2023/06/22 01:48:17;;;;;;;5.50;2.85;;;25.70;84.00;;;;;;5008629;28;20054;-61
2023/06/22 01:50:43;;;;;;;7.18;3.50;;;25.70;87.60;;;;;;4997477;28;20041;-61
2023/06/22 01:53:09;;;;;;;4.85;3.10;;;25.50;84.00;;;;;;4980072;28;20416;-67
2023/06/22 01:55:35;;;;;;;5.72;3.50;;;25.80;84.10;;;;;;5013361;28;20048;-66
2023/06/22 01:58:00;;;;;;;6.10;3.65;;;25.70;84.00;;;;;;5014181;28;20119;-64
2023/06/22 02:00:26;;;;;;;7.60;3.70;;;25.70;84.00;;;;;;4993673;28;20085;-68
2023/06/22 02:03:11;;;;;;;6.93;4.00;;;25.60;83.90;;;;;;5007746;28;20038;-71
2023/06/22 02:05:42;;;;;;;8.00;4.70;;;25.70;83.00;;;;;;5012200;28;20534;-61
2023/06/22 02:08:11;;;;;;;8.27;5.10;;;25.80;84.30;;;;;;5011215;28;20049;-63
2023/06/22 02:10:37;;;;;;;7.90;5.38;;;25.80;84.30;;;;;;5012231;28;20184;-61
2023/06/22 02:13:06;;;;;;;8.52;6.20;;;25.60;83.90;;;;;;5005084;28;20030;-70
2023/06/22 02:15:31;;;;;;;9.45;5.00;;;25.60;84.20;;;;;;4993397;28;20434;-64
2023/06/22 02:17:57;;;;;;;9.05;6.13;;;25.60;87.30;;;;;;4994283;28;20185;-63
2023/06/22 02:20:24;;;;;;;6.63;4.97;;;25.70;83.90;;;;;;5012727;28;20041;-62
2023/06/22 02:22:49;;;;;;;6.70;4.63;;;25.90;84.00;;;;;;5012858;28;20454;-61
2023/06/22 02:25:15;;;;;;;6.78;4.82;;;25.90;83.90;;;;;;5012027;28;20140;-65
2023/06/22 02:27:41;;;;;;;8.45;5.88;;;25.80;83.80;;;;;;5011370;28;20045;-61
2023/06/22 02:30:09;;;;;;;7.05;4.95;;;25.50;83.60;;;;;;5013437;28;20395;-62
2023/06/22 02:32:35;;;;;;;6.85;5.10;;;25.60;83.70;;;;;;5010991;28;20038;-61
2023/06/22 02:35:04;;;;;;;8.07;5.82;;;25.40;83.40;;;;;;5011563;28;20397;-63
2023/06/22 02:37:32;;;;;;;6.97;5.38;;;25.50;83.60;;;;;;4993926;28;20113;-62
2023/06/22 02:39:58;;;;;;;10.20;5.82;;;25.70;83.90;;;;;;5012029;28;20399;-68
2023/06/22 02:42:24;;;;;;;10.20;6.60;;;25.50;87.10;;;;;;5010241;28;20037;-65
2023/06/22 02:44:50;;;;;;;9.45;6.55;;;25.60;86.80;;;;;;5013643;28;20455;-61
2023/06/22 02:47:15;;;;;;;9.70;6.97;;;25.30;83.40;;;;;;5013348;28;20500;-60
2023/06/22 02:49:41;;;;;;;9.50;7.03;;;25.50;83.20;;;;;;5007489;28;20109;-63
2023/06/22 02:52:07;;;;;;;10.73;7.47;;;25.40;83.40;;;;;;4997381;28;20492;-69
2023/06/22 02:54:33;;;;;;;7.57;6.15;;;25.70;83.50;;;;;;4993854;28;20052;-61
2023/06/22 02:57:02;;;;;;;10.07;7.18;;;25.60;83.50;;;;;;5004882;28;20096;-65
2023/06/22 02:59:28;;;;;;;9.95;6.95;;;25.30;83.30;;;;;;5013518;28;20150;-65
2023/06/22 03:01:54;;;;;;;11.43;8.10;;;25.50;83.30;;;;;;5009875;28;20078;-64
2023/06/22 03:04:20;;;;;;;9.32;7.20;;;25.30;83.20;;;;;;5012357;28;20042;-65
2023/06/22 03:06:50;;;;;;;12.52;8.85;;;25.40;83.40;;;;;;5013069;28;20045;-62
2023/06/22 03:09:16;;;;;;;11.55;8.35;;;25.40;83.40;;;;;;5008340;28;20109;-69
2023/06/22 03:11:42;;;;;;;12.48;7.78;;;25.50;83.40;;;;;;5007131;28;20053;-67
2023/06/22 03:14:08;;;;;;;12.80;8.02;;;25.60;83.30;;;;;;5008542;28;20140;-62
2023/06/22 03:16:33;;;;;;;12.20;7.85;;;25.40;83.30;;;;;;5013171;28;20496;-61
2023/06/22 03:18:59;;;;;;;11.07;8.02;;;25.40;86.20;;;;;;5013194;28;20507;-62
2023/06/22 03:21:27;;;;;;;11.75;8.85;;;25.60;83.30;;;;;;5012448;28;20398;-63
2023/06/22 03:23:53;;;;;;;13.25;9.50;;;25.30;83.50;;;;;;5011073;28;20139;-70
2023/06/22 03:26:19;;;;;;;10.95;8.10;;;25.30;83.20;;;;;;5006872;28;20070;-70
2023/06/22 03:28:45;;;;;;;11.48;8.45;;;25.60;83.40;;;;;;4993357;28;20054;-65
2023/06/22 03:31:11;;;;;;;11.57;8.68;;;25.30;83.10;;;;;;4993450;28;20057;-61
2023/06/22 03:33:36;;;;;;;12.68;9.68;;;25.60;83.30;;;;;;5002238;28;20064;-60
2023/06/22 03:36:02;;;;;;;11.65;7.97;;;25.30;83.00;;;;;;5011015;28;20481;-62
2023/06/22 03:38:28;;;;;;;14.68;9.75;;;25.40;83.00;;;;;;5006255;28;20045;-69
2023/06/22 03:40:54;;;;;;;12.95;9.02;;;25.50;83.10;;;;;;5004947;28;20046;-62
2023/06/22 03:43:19;;;;;;;12.63;9.18;;;25.50;83.10;;;;;;5013527;28;20045;-64
2023/06/22 03:45:45;;;;;;;11.93;8.82;;;25.60;83.20;;;;;;5016056;28;20108;-61
2023/06/22 03:48:12;;;;;;;12.20;8.65;;;25.40;83.10;;;;;;5016129;28;20061;-66
2023/06/22 03:50:38;;;;;;;14.02;8.48;;;25.50;82.80;;;;;;5015045;28;20455;-61
2023/06/22 03:53:03;;;;;;;12.25;9.70;;;25.40;83.00;;;;;;5014807;28;20061;-63
2023/06/22 03:55:30;;;;;;;12.07;8.15;;;25.60;83.10;;;;;;5015894;28;20045;-64
2023/06/22 03:57:56;;;;;;;11.07;8.43;;;25.50;83.10;;;;;;5016418;28;20121;-61
2023/06/22 04:00:25;;;;;;;12.35;8.20;;;25.50;83.10;;;;;;5010295;28;20392;-62
2023/06/22 04:02:51;;;;;;;12.18;8.90;;;25.30;82.90;;;;;;5000149;28;20065;-61
2023/06/22 04:05:19;;;;;;;12.52;8.25;;;25.50;82.70;;;;;;5011204;28;20065;-61
2023/06/22 04:07:45;;;;;;;11.02;7.78;;;25.70;81.90;;;;;;5016637;28;20443;-62
2023/06/22 04:10:11;;;;;;;10.27;8.25;;;25.50;82.70;;;;;;5016254;28;20137;-62
2023/06/22 04:12:37;;;;;;;8.82;6.80;;;25.40;82.50;;;;;;5013808;28;20042;-61
2023/06/22 04:15:03;;;;;;;11.23;7.75;;;25.40;82.50;;;;;;5003532;28;20047;-62
2023/06/22 04:17:29;;;;;;;9.15;6.90;;;25.70;82.60;;;;;;5001145;28;20041;-65
2023/06/22 04:19:54;;;;;;;9.13;6.68;;;25.90;82.70;;;;;;5015465;28;20049;-66
2023/06/22 04:22:20;;;;;;;10.68;7.00;;;25.50;82.50;;;;;;5014596;28;20057;-62
2023/06/22 04:24:46;;;;;;;9.32;6.82;;;25.80;82.70;;;;;;5015904;28;20167;-61
2023/06/22 04:27:12;;;;;;;8.10;6.47;;;25.30;82.30;;;;;;5014530;28;20042;-60
2023/06/22 04:29:43;;;;;;;9.45;6.13;;;25.60;82.50;;;;;;5015881;28;20042;-71
2023/06/22 04:32:09;;;;;;;9.63;6.33;;;25.70;82.60;;;;;;5014920;28;20053;-70
2023/06/22 04:34:35;;;;;;;8.80;5.82;;;25.80;82.60;;;;;;5007917;28;20306;-72
2023/06/22 04:37:00;;;;;;;10.85;6.40;;;25.70;82.40;;;;;;4996583;28;20496;-65
2023/06/22 04:39:27;;;;;;;8.48;5.10;;;25.70;82.30;;;;;;4996897;28;20048;-62
2023/06/22 04:41:52;;;;;;;7.20;4.97;;;25.80;82.60;;;;;;4996381;28;20440;-73
2023/06/22 04:44:24;;;;;;;8.18;5.18;;;25.70;82.40;;;;;;5009586;28;20038;-61
2023/06/22 04:46:53;;;;;;;9.30;5.45;;;26.10;82.00;;;;;;5014404;28;20463;-62
2023/06/22 04:49:20;;;;;;;7.45;5.10;;;25.90;82.90;;;;;;5014694;28;20056;-70
2023/06/22 04:51:46;;;;;;;7.35;5.13;;;25.90;82.70;;;;;;5009510;28;20078;-68
2023/06/22 04:54:12;;;;;;;9.95;5.45;;;26.00;82.50;;;;;;5006160;28;20455;-63
2023/06/22 04:56:40;;;;;;;8.02;5.28;;;25.90;82.30;;;;;;5011090;28;20046;-69
2023/06/22 04:59:06;;;;;;;7.95;4.72;;;26.10;82.70;;;;;;5000686;28;20119;-66
2023/06/22 05:01:32;;;;;;;7.57;4.85;;;26.10;82.40;;;;;;5013422;28;20451;-63
2023/06/22 05:04:00;;;;;;;8.10;4.82;;;26.10;82.10;;;;;;5003863;28;20077;-71
2023/06/22 05:06:26;;;;;;;10.57;5.10;;;26.10;81.90;;;;;;5013354;28;20088;-68
2023/06/22 05:08:58;;;;;;;6.47;4.32;;;26.40;81.60;;;;;;5005745;28;20094;-67
2023/06/22 05:11:25;;;;;;;6.00;3.70;;;26.40;81.30;;;;;;4995289;28;20038;-72
2023/06/22 05:13:51;;;;;;;6.30;4.00;;;26.60;81.50;;;;;;5013098;28;20050;-68
2023/06/22 05:16:17;;;;;;;5.97;3.92;;;26.70;80.90;;;;;;5013391;28;20784;-68
2023/06/22 05:18:43;;;;;;;11.48;4.72;;;27.00;80.70;;;;;;5014990;28;20049;-67
2023/06/22 05:21:09;;;;;;;6.70;3.65;;;27.20;80.70;;;;;;5014133;28;20096;-72
2023/06/22 05:23:35;;;;;;;7.95;4.07;;;27.40;80.30;;;;;;5014356;28;20049;-63
2023/06/22 05:26:01;;;;;;;9.23;4.30;;;27.40;80.30;;;;;;5005134;28;20089;-71
2023/06/22 05:28:26;;;;;;;5.97;3.60;;;27.40;79.90;;;;;;5014776;28;20045;-68
2023/06/22 05:30:52;;;;;;;6.45;4.00;;;27.40;79.70;;;;;;5014738;28;20049;-66
2023/06/22 05:33:18;;;;;;;6.50;3.85;;;27.40;79.50;;;;;;5013033;28;20054;-71
2023/06/22 05:35:44;;;;;;;6.25;3.55;;;27.60;79.50;;;;;;5011518;28;20080;-63
2023/06/22 05:38:09;;;;;;;8.50;4.22;;;27.60;79.30;;;;;;5013823;28;20050;-68
2023/06/22 05:40:35;;;;;;;7.38;4.20;;;27.70;79.30;;;;;;5014864;28;20046;-64
2023/06/22 05:43:01;;;;;;;7.57;3.92;;;27.50;79.00;;;;;;5003948;28;20047;-65
2023/06/22 05:45:27;;;;;;;7.00;4.22;;;27.90;79.20;;;;;;5003825;28;20196;-62
2023/06/22 05:47:53;;;;;;;6.40;3.80;;;27.90;78.80;;;;;;5013058;28;20128;-72
2023/06/22 05:50:19;;;;;;;7.88;4.20;;;27.80;78.10;;;;;;5014731;28;20046;-67
2023/06/22 05:52:44;;;;;;;5.63;4.22;;;28.00;78.50;;;;;;5012384;28;20053;-65
2023/06/22 05:55:10;;;;;;;5.40;3.70;;;28.20;78.60;;;;;;5011802;28;20050;-62
2023/06/22 05:57:36;;;;;;;7.47;4.20;;;30.40;79.90;;;;;;5012143;28;20046;-62
2023/06/22 06:00:05;;;;;;;8.55;4.35;;;28.50;78.40;;;;;;5003586;28;20042;-70
2023/06/22 06:02:33;;;;;;;7.03;4.18;;;27.90;77.90;;;;;;4994707;28;20061;-71
2023/06/22 06:04:59;;;;;;;8.40;4.40;;;28.40;78.40;;;;;;4994513;28;20050;-71
2023/06/22 06:07:25;;;;;;;6.15;4.13;;;28.40;78.10;;;;;;5011733;28;20039;-62
2023/06/22 06:09:51;;;;;;;6.65;3.97;;;28.30;78.10;;;;;;5014025;28;20057;-66
2023/06/22 06:12:17;;;;;;;6.20;4.03;;;28.60;78.10;;;;;;5013375;28;20049;-61
2023/06/22 06:14:42;;;;;;;6.05;4.18;;;28.30;77.70;;;;;;5014005;28;20046;-62
2023/06/22 06:17:08;;;;;;;5.60;3.67;;;28.30;77.50;;;;;;5011859;28;20092;-71
2023/06/22 06:19:34;;;;;;;6.60;3.90;;;28.30;77.60;;;;;;5011767;28;20407;-68
2023/06/22 06:22:00;;;;;;;7.72;4.50;;;28.40;77.50;;;;;;5014173;28;20042;-61
2023/06/22 06:24:26;;;;;;;7.35;4.15;;;28.40;77.60;;;;;;5014027;28;20084;-66
2023/06/22 06:26:51;;;;;;;6.85;4.28;;;28.60;77.70;;;;;;5008019;28;20065;-70
2023/06/22 06:29:17;;;;;;;6.13;4.20;;;28.50;77.40;;;;;;5012938;28;20049;-62
2023/06/22 06:31:43;;;;;;;6.05;4.40;;;28.60;77.30;;;;;;5013851;28;20112;-65
2023/06/22 06:34:09;;;;;;;6.88;3.97;;;28.50;77.30;;;;;;5001911;28;20112;-72
2023/06/22 06:36:35;;;;;;;5.50;3.72;;;28.60;77.20;;;;;;5000566;28;20046;-62
2023/06/22 06:39:03;;;;;;;6.22;3.95;;;28.50;77.30;;;;;;4994472;28;20050;-63
2023/06/22 06:41:28;;;;;;;6.97;4.20;;;28.70;77.40;;;;;;5013864;28;20063;-65
2023/06/22 06:43:54;;;;;;;7.38;4.10;;;28.60;77.40;;;;;;5013097;28;20046;-60
2023/06/22 06:46:20;;;;;;;7.68;4.13;;;28.40;77.30;;;;;;5003772;28;20054;-67
2023/06/22 06:48:46;;;;;;;6.70;4.00;;;28.40;77.00;;;;;;5004326;28;20050;-67
2023/06/22 06:51:11;;;;;;;7.90;4.15;;;28.50;77.30;;;;;;5001289;28;20496;-61
2023/06/22 06:53:40;;;;;;;5.80;4.15;;;28.50;77.20;;;;;;4993652;28;20046;-64
2023/06/22 06:56:06;;;;;;;6.35;4.60;;;28.50;77.30;;;;;;5002102;28;20613;-63
2023/06/22 06:58:32;;;;;;;8.98;4.78;;;28.60;77.10;;;;;;5013475;28;20085;-62
2023/06/22 07:00:58;;;;;;;8.15;4.60;;;28.50;77.10;;;;;;5013775;28;20472;-61
2023/06/22 07:03:23;;;;;;;7.30;4.85;;;28.70;77.10;;;;;;5013393;28;20061;-63
2023/06/22 07:05:49;;;;;;;6.20;4.38;;;28.80;77.00;;;;;;5010850;28;20397;-72
2023/06/22 07:08:15;;;;;;;6.75;4.20;;;28.90;76.90;;;;;;5000528;28;20046;-67
2023/06/22 07:10:41;;;;;;;5.95;4.10;;;28.80;76.90;;;;;;4993772;28;20144;-61
2023/06/22 07:13:06;;;;;;;7.28;4.45;;;28.90;76.90;;;;;;4993296;28;20039;-60
2023/06/22 07:15:32;;;;;;;9.48;6.55;;;29.00;76.90;;;;;;4995079;28;20045;-64
2023/06/22 07:17:58;;;;;;;10.98;7.13;;;28.80;76.40;;;;;;5008485;28;20046;-66
2023/06/22 07:20:24;;;;;;;16.55;12.88;;;28.90;76.40;;;;;;5013149;28;20114;-65
2023/06/22 07:22:49;;;;;;;15.40;13.15;;;28.70;75.90;;;;;;5011337;28;20112;-66
2023/06/22 07:25:16;;;;;;;15.65;12.93;;;28.60;75.60;;;;;;5010351;28;20061;-63
2023/06/22 07:27:59;;;;;;;15.82;12.00;;;28.80;75.80;;;;;;5009845;28;20057;-68
2023/06/22 07:30:25;;;;;;;14.02;12.40;;;28.60;75.30;;;;;;5012994;28;20046;-65
2023/06/22 07:32:51;;;;;;;17.02;12.15;;;28.20;75.10;;;;;;5011617;28;20053;-65
2023/06/22 07:35:17;;;;;;;12.60;11.13;;;28.30;75.50;;;;;;5010234;28;20061;-64
2023/06/22 07:37:42;;;;;;;15.93;12.02;;;28.20;75.50;;;;;;5007581;28;20066;-60
2023/06/22 07:40:09;;;;;;;13.32;10.32;;;28.10;75.50;;;;;;5004356;28;20544;-61
2023/06/22 07:42:35;;;;;;;13.40;10.90;;;28.10;75.60;;;;;;5004189;28;20046;-67
2023/06/22 07:45:02;;;;;;;16.70;11.75;;;28.10;75.90;;;;;;5012632;28;20455;-69
2023/06/22 07:47:28;;;;;;;13.70;11.10;;;28.10;76.30;;;;;;5008360;28;20056;-69
2023/06/22 07:49:57;;;;;;;15.55;10.15;;;28.30;75.80;;;;;;5011334;28;20483;-70
2023/06/22 07:52:26;;;;;;;13.30;10.23;;;27.80;76.10;;;;;;5012429;28;20046;-70
2023/06/22 07:54:52;;;;;;;13.65;9.50;;;28.20;74.80;;;;;;5012575;28;20108;-67
2023/06/22 07:57:18;;;;;;;16.38;10.35;;;28.10;76.10;;;;;;5011889;28;20037;-71
2023/06/22 07:59:44;;;;;;;13.77;9.55;;;28.40;76.10;;;;;;4998530;28;20065;-69
2023/06/22 08:02:10;;;;;;;13.43;9.43;;;28.30;76.30;;;;;;5012856;28;20046;-69
2023/06/22 08:04:36;;;;;;;13.48;10.30;;;28.30;76.20;;;;;;5011460;28;20053;-71
2023/06/22 08:07:01;;;;;;;14.40;10.45;;;28.30;76.00;;;;;;5011897;28;20049;-61
2023/06/22 08:09:29;;;;;;;13.13;8.50;;;28.40;75.60;;;;;;5009759;28;20049;-62
2023/06/22 08:11:56;;;;;;;11.60;8.73;;;28.50;76.20;;;;;;5011039;28;20041;-69
2023/06/22 08:14:25;;;;;;;12.25;8.60;;;28.50;75.90;;;;;;5012659;28;20049;-61
2023/06/22 08:16:51;;;;;;;12.18;9.10;;;28.50;75.60;;;;;;4995047;28;20039;-69
2023/06/22 08:19:17;;;;;;;14.63;8.00;;;28.70;75.60;;;;;;5018263;28;20376;-68
2023/06/22 08:21:43;;;;;;;12.40;7.20;;;28.60;75.60;;;;;;5011128;28;20067;-69
2023/06/22 08:24:09;;;;;;;9.85;7.43;;;28.60;75.60;;;;;;5012448;28;20050;-69
2023/06/22 08:26:37;;;;;;;11.18;9.13;;;28.50;75.30;;;;;;5013483;28;20404;-65
2023/06/22 08:29:05;;;;;;;9.35;6.90;;;28.30;75.00;;;;;;5007598;28;20054;-69
2023/06/22 08:31:34;;;;;;;8.65;6.88;;;28.40;75.30;;;;;;5014805;28;20048;-70
2023/06/22 08:34:00;;;;;;;11.13;7.80;;;28.30;75.30;;;;;;5009374;28;20049;-69
2023/06/22 08:36:28;;;;;;;8.57;6.15;;;28.50;75.00;;;;;;5009950;28;20129;-61
2023/06/22 08:39:01;;;;;;;9.52;6.00;;;28.50;75.30;;;;;;5003295;28;20060;-69
2023/06/22 08:41:27;;;;;;;8.77;5.97;;;28.70;74.80;;;;;;5014622;28;20060;-69
2023/06/22 08:43:53;;;;;;;10.50;5.78;;;28.80;75.40;;;;;;5012832;28;20053;-70
2023/06/22 08:46:23;;;;;;;10.05;5.35;;;28.60;75.20;;;;;;5011370;28;20038;-69
2023/06/22 08:48:50;;;;;;;9.43;6.53;;;28.90;75.60;;;;;;5011800;28;20510;-68
2023/06/22 08:51:16;;;;;;;8.80;6.10;;;28.50;75.10;;;;;;5013660;28;20042;-70
2023/06/22 08:53:43;;;;;;;8.05;5.63;;;28.60;74.90;;;;;;5013266;28;20050;-61
2023/06/22 08:56:08;;;;;;;9.48;7.35;;;28.40;74.70;;;;;;5013503;28;20048;-65
2023/06/22 08:58:34;;;;;;;11.00;5.53;;;28.70;74.80;;;;;;5013757;28;20049;-65
2023/06/22 09:01:01;;;;;;;9.80;5.30;;;28.60;75.20;;;;;;5014364;28;20046;-69
2023/06/22 09:03:27;;;;;;;7.15;5.00;;;28.70;75.20;;;;;;5015090;28;20049;-70
2023/06/22 09:05:52;;;;;;;7.75;5.35;;;28.70;75.00;;;;;;5012148;28;20041;-67
2023/06/22 09:08:18;;;;;;;7.05;4.68;;;28.60;74.80;;;;;;4995685;28;20061;-69
2023/06/22 09:10:44;;;;;;;7.57;4.80;;;28.70;74.90;;;;;;5009086;28;20041;-69
2023/06/22 09:13:09;;;;;;;10.43;6.43;;;28.50;74.50;;;;;;5012032;28;20124;-70
2023/06/22 09:15:35;;;;;;;9.15;7.25;;;28.80;74.70;;;;;;5013632;28;20042;-68
2023/06/22 09:18:01;;;;;;;11.38;6.88;;;28.70;74.20;;;;;;5015035;28;20571;-69
2023/06/22 09:20:27;;;;;;;7.60;5.40;;;28.50;74.20;;;;;;5010947;28;20045;-65
2023/06/22 09:22:53;;;;;;;8.18;5.13;;;28.50;74.40;;;;;;5003411;28;20400;-61
2023/06/22 09:25:20;;;;;;;8.65;5.03;;;28.50;74.60;;;;;;5011950;28;20085;-61
2023/06/22 09:27:47;;;;;;;9.25;4.70;;;28.70;74.90;;;;;;5015052;28;20046;-61
2023/06/22 09:30:13;;;;;;;6.72;4.95;;;28.70;75.20;;;;;;5015131;28;20057;-64
2023/06/22 09:32:39;;;;;;;9.98;6.75;;;28.60;74.70;;;;;;5014686;28;20446;-71
2023/06/22 09:35:09;;;;;;;8.27;5.65;;;28.80;74.80;;;;;;5014713;28;20072;-61
2023/06/22 09:37:35;;;;;;;7.70;4.95;;;28.80;74.30;;;;;;5012478;28;20050;-61
2023/06/22 09:40:05;;;;;;;9.25;5.22;;;28.90;75.00;;;;;;4998364;28;20050;-61
2023/06/22 09:42:32;;;;;;;7.20;4.85;;;28.70;74.80;;;;;;5015285;28;20373;-60
2023/06/22 09:44:58;;;;;;;6.65;4.75;;;28.40;74.50;;;;;;5015248;28;20053;-60
2023/06/22 09:47:23;;;;;;;7.18;4.85;;;28.60;74.70;;;;;;5012364;28;20089;-67
2023/06/22 09:49:49;;;;;;;7.55;4.93;;;28.70;74.60;;;;;;5014410;28;20050;-63
2023/06/22 09:52:16;;;;;;;6.75;4.63;;;28.70;74.60;;;;;;5013153;28;20096;-61
2023/06/22 09:54:41;;;;;;;7.32;4.40;;;28.60;74.50;;;;;;5013151;28;20050;-61
2023/06/22 09:57:07;;;;;;;6.20;4.50;;;28.40;74.60;;;;;;5009870;28;20477;-61
2023/06/22 09:59:33;;;;;;;6.85;4.53;;;28.50;74.80;;;;;;4994948;28;20121;-63
2023/06/22 10:01:59;;;;;;;8.07;4.80;;;28.60;74.80;;;;;;4994925;28;20116;-64
2023/06/22 10:04:25;;;;;;;7.78;4.10;;;28.70;74.30;;;;;;5001622;28;20108;-61
2023/06/22 10:06:51;;;;;;;6.75;4.43;;;28.50;74.80;;;;;;5010662;28;20058;-61
2023/06/22 10:09:17;;;;;;;6.85;4.50;;;28.50;74.70;;;;;;5013274;28;20502;-64
2023/06/22 10:11:43;;;;;;;7.97;5.38;;;28.60;74.80;;;;;;5014302;28;20096;-65
2023/06/22 10:14:08;;;;;;;6.20;4.43;;;28.60;75.20;;;;;;5010822;28;20404;-61
2023/06/22 10:16:36;;;;;;;6.10;3.95;;;28.40;74.90;;;;;;5013192;28;20050;-63
2023/06/22 10:19:02;;;;;;;7.28;4.30;;;28.30;74.80;;;;;;5014117;28;20050;-70
2023/06/22 10:21:28;;;;;;;7.53;4.68;;;28.40;74.90;;;;;;5013865;28;20457;-70
2023/06/22 10:23:55;;;;;;;7.38;3.83;;;28.50;75.10;;;;;;5013684;28;20104;-69
2023/06/22 10:26:20;;;;;;;6.55;4.10;;;28.40;75.10;;;;;;5012318;28;20050;-67
2023/06/22 10:28:46;;;;;;;7.47;4.75;;;28.70;75.20;;;;;;5008539;28;20475;-71
2023/06/22 10:31:12;;;;;;;8.45;4.60;;;28.30;75.00;;;;;;5006871;28;20039;-71
2023/06/22 10:33:38;;;;;;;7.80;4.18;;;28.70;75.20;;;;;;4994201;28;20373;-67
2023/06/22 10:36:04;;;;;;;7.97;4.30;;;28.60;75.20;;;;;;5002747;28;20087;-71
2023/06/22 10:38:30;;;;;;;17.98;4.47;;;28.50;75.20;;;;;;5013569;28;20046;-62
2023/06/22 10:40:56;;;;;;;6.05;3.75;;;28.40;75.30;;;;;;5009561;28;20038;-69
2023/06/22 10:43:21;;;;;;;8.02;4.07;;;28.40;75.30;;;;;;5013471;28;20506;-61
2023/06/22 10:45:47;;;;;;;7.47;4.05;;;28.50;75.60;;;;;;5012290;28;20507;-60
2023/06/22 10:48:13;;;;;;;7.70;4.07;;;28.50;75.50;;;;;;5012893;28;20523;-61
2023/06/22 10:50:39;;;;;;;7.25;4.38;;;28.50;75.40;;;;;;5000796;28;20114;-61
2023/06/22 10:53:05;;;;;;;6.05;3.83;;;28.50;75.60;;;;;;5006767;28;20042;-61
2023/06/22 10:55:30;;;;;;;5.80;3.88;;;28.50;75.70;;;;;;5013587;28;20046;-61
2023/06/22 10:57:56;;;;;;;6.75;4.30;;;28.40;75.70;;;;;;5012253;28;20136;-64
2023/06/22 11:00:22;;;;;;;6.63;4.38;;;28.60;75.80;;;;;;5011165;28;20053;-61
2023/06/22 11:02:47;;;;;;;7.20;4.70;;;28.90;75.90;;;;;;5009120;28;20409;-61
2023/06/22 11:05:13;;;;;;;7.65;4.40;;;28.70;75.80;;;;;;5007599;28;20039;-62
2023/06/22 11:07:43;;;;;;;6.68;3.92;;;28.50;75.00;;;;;;5013158;28;20108;-60
2023/06/22 11:10:09;;;;;;;8.45;4.13;;;28.80;75.90;;;;;;5013098;28;20049;-61
2023/06/22 11:12:35;;;;;;;8.50;4.88;;;28.70;75.30;;;;;;5011841;28;20049;-62
2023/06/22 11:15:01;;;;;;;10.07;4.93;;;28.70;75.40;;;;;;5011935;28;20053;-62
2023/06/22 11:17:27;;;;;;;13.00;5.65;;;28.80;75.70;;;;;;5011919;28;20381;-62
2023/06/22 11:19:53;;;;;;;9.27;4.50;;;28.70;75.50;;;;;;5008529;28;20056;-69
2023/06/22 11:22:18;;;;;;;9.35;5.28;;;28.60;75.50;;;;;;5004746;28;20046;-70
2023/06/22 11:24:44;;;;;;;7.25;4.72;;;28.90;75.60;;;;;;5010877;28;20058;-67
2023/06/22 11:27:10;;;;;;;9.05;4.78;;;28.80;75.50;;;;;;5013093;28;20042;-70
2023/06/22 11:29:36;;;;;;;7.93;4.63;;;28.80;75.50;;;;;;5012830;28;20252;-69
2023/06/22 11:32:02;;;;;;;6.72;4.70;;;28.90;75.50;;;;;;5011660;28;20049;-71
2023/06/22 11:34:28;;;;;;;9.63;5.13;;;28.80;75.40;;;;;;5009274;28;20053;-66
2023/06/22 11:36:53;;;;;;;8.13;4.55;;;28.60;75.50;;;;;;5013060;28;20119;-71
2023/06/22 11:39:19;;;;;;;7.45;4.95;;;28.60;75.50;;;;;;5007911;28;20539;-69
2023/06/22 11:41:45;;;;;;;8.48;4.88;;;28.70;75.70;;;;;;5002327;28;20042;-67
2023/06/22 11:44:11;;;;;;;5.88;3.95;;;28.90;75.60;;;;;;5007587;28;20391;-70
2023/06/22 11:46:37;;;;;;;7.55;4.43;;;28.70;75.60;;;;;;5005890;28;20117;-68
2023/06/22 11:49:03;;;;;;;22.25;6.95;;;28.70;75.60;;;;;;5011237;28;20052;-69
2023/06/22 11:51:31;;;;;;;6.65;4.35;;;28.60;75.60;;;;;;5012603;28;20072;-62
2023/06/22 11:53:57;;;;;;;8.70;5.60;;;28.70;75.90;;;;;;5010810;28;20049;-60
2023/06/22 11:56:23;;;;;;;9.60;4.32;;;28.90;76.10;;;;;;5011889;28;20128;-62
2023/06/22 11:58:48;;;;;;;9.05;4.57;;;28.90;76.10;;;;;;5013066;28;20050;-67
2023/06/22 12:01:15;;;;;;;6.38;4.68;;;28.90;76.00;;;;;;5012687;28;20045;-61
2023/06/22 12:03:43;;;;;;;7.00;4.20;;;29.00;76.30;;;;;;5015566;28;20058;-60
2023/06/22 12:06:09;;;;;;;6.75;4.22;;;28.80;76.30;;;;;;5016132;28;20153;-62
2023/06/22 12:08:35;;;;;;;10.35;4.38;;;28.90;76.30;;;;;;5015745;28;20064;-60
2023/06/22 12:11:00;;;;;;;6.38;4.22;;;28.80;76.20;;;;;;5016608;28;20038;-63
2023/06/22 12:13:26;;;;;;;7.57;4.07;;;28.90;76.00;;;;;;5015259;28;20045;-63
2023/06/22 12:15:52;;;;;;;8.27;4.68;;;29.00;76.10;;;;;;5016220;28;20515;-70
2023/06/22 12:18:20;;;;;;;6.93;3.95;;;28.90;76.10;;;;;;5015295;28;20042;-63
2023/06/22 12:20:47;;;;;;;6.70;4.50;;;29.00;76.40;;;;;;5014824;28;20053;-62
2023/06/22 12:23:13;;;;;;;6.68;4.00;;;28.70;76.20;;;;;;5015212;28;20048;-64
2023/06/22 12:25:39;;;;;;;5.72;4.10;;;28.70;75.70;;;;;;5015700;28;20484;-65
2023/06/22 12:28:05;;;;;;;5.80;4.53;;;28.70;76.00;;;;;;5016232;28;20052;-61
2023/06/22 12:30:33;;;;;;;6.20;4.03;;;28.90;75.80;;;;;;5009164;28;20400;-64
2023/06/22 12:32:58;;;;;;;6.32;4.18;;;28.60;76.20;;;;;;4997746;28;20100;-62
2023/06/22 12:35:24;;;;;;;8.57;4.63;;;28.70;76.10;;;;;;5016034;28;20117;-62
2023/06/22 12:37:50;;;;;;;10.50;4.32;;;28.90;76.10;;;;;;5016210;28;20042;-61
2023/06/22 12:40:16;;;;;;;7.68;4.10;;;28.60;76.10;;;;;;5015760;28;20510;-60